createdAt,value
2018-06-24T00:01:12.955Z,14.00
2018-06-24T00:03:42.126Z,14.10
2018-06-24T00:06:11.296Z,13.90
2018-06-24T00:08:40.467Z,13.90
2018-06-24T00:11:10.029Z,13.60
2018-06-24T00:13:39.289Z,13.90
2018-06-24T00:16:08.669Z,13.80
2018-06-24T00:18:37.846Z,14.00
2018-06-24T00:21:06.970Z,14.00
2018-06-24T00:23:36.133Z,14.10
2018-06-24T00:26:05.370Z,13.80
2018-06-24T00:28:34.550Z,13.80
2018-06-24T00:31:03.691Z,13.80
2018-06-24T00:33:32.812Z,14.20
2018-06-24T00:36:02.003Z,14.00
2018-06-24T00:38:31.097Z,13.90
2018-06-24T00:41:00.309Z,13.90
2018-06-24T00:43:29.494Z,13.70
2018-06-24T00:45:58.597Z,13.50
2018-06-24T00:48:27.778Z,13.70
2018-06-24T00:50:56.938Z,13.60
2018-06-24T00:53:26.129Z,14.20
2018-06-24T00:55:55.275Z,13.80
2018-06-24T00:58:24.401Z,13.60
2018-06-24T01:00:53.599Z,13.70
2018-06-24T01:03:22.798Z,13.60
2018-06-24T01:05:51.931Z,13.40
2018-06-24T01:08:21.088Z,13.50
2018-06-24T01:10:50.319Z,13.40
2018-06-24T01:13:19.501Z,13.50
2018-06-24T01:15:48.626Z,13.40
2018-06-24T01:18:17.780Z,13.30
2018-06-24T01:20:46.954Z,13.10
2018-06-24T01:23:16.076Z,13.30
2018-06-24T01:25:45.244Z,13.30
2018-06-24T01:28:14.445Z,13.30
2018-06-24T01:30:43.654Z,13.40
2018-06-24T01:33:12.810Z,13.50
2018-06-24T01:35:41.962Z,13.50
2018-06-24T01:38:11.094Z,13.30
2018-06-24T01:40:40.230Z,13.30
2018-06-24T01:43:09.378Z,13.30
2018-06-24T01:45:38.538Z,13.30
2018-06-24T01:48:07.695Z,13.30
2018-06-24T01:50:36.806Z,13.30
2018-06-24T01:53:05.880Z,13.60
2018-06-24T01:55:35.036Z,13.90
2018-06-24T01:58:04.185Z,13.70
2018-06-24T02:00:33.337Z,13.80
2018-06-24T02:03:02.493Z,13.70
2018-06-24T02:05:31.606Z,13.50
2018-06-24T02:08:00.685Z,13.50
2018-06-24T02:10:29.849Z,13.20
2018-06-24T02:12:58.952Z,13.20
2018-06-24T02:15:28.125Z,13.50
2018-06-24T02:17:57.221Z,13.30
2018-06-24T02:20:26.419Z,13.10
2018-06-24T02:22:55.629Z,13.20
2018-06-24T02:25:24.785Z,13.10
2018-06-24T02:27:53.892Z,13.10
2018-06-24T02:30:23.128Z,13.10
2018-06-24T02:32:52.194Z,13.00
2018-06-24T02:35:21.329Z,13.10
2018-06-24T02:37:50.520Z,13.20
2018-06-24T02:40:19.681Z,13.20
2018-06-24T02:42:48.842Z,13.30
2018-06-24T02:45:17.971Z,13.20
2018-06-24T02:47:47.172Z,13.20
2018-06-24T02:50:16.496Z,13.50
2018-06-24T02:52:45.613Z,13.40
2018-06-24T02:55:14.785Z,13.10
2018-06-24T02:57:43.946Z,13.30
2018-06-24T03:00:13.164Z,13.50
2018-06-24T03:02:42.317Z,13.20
2018-06-24T03:05:11.497Z,13.20
2018-06-24T03:07:40.724Z,13.40
2018-06-24T03:10:09.914Z,13.40
2018-06-24T03:12:39.026Z,13.50
2018-06-24T03:15:08.149Z,13.60
2018-06-24T03:17:37.347Z,13.40
2018-06-24T03:20:06.558Z,13.60
2018-06-24T03:22:35.644Z,13.50
2018-06-24T03:25:04.770Z,13.60
2018-06-24T03:27:33.959Z,13.60
2018-06-24T03:30:03.147Z,13.20
2018-06-24T03:32:32.293Z,13.60
2018-06-24T03:35:01.413Z,13.20
2018-06-24T03:37:30.577Z,13.60
2018-06-24T03:39:59.749Z,13.20
2018-06-24T03:42:28.858Z,13.30
2018-06-24T03:44:57.995Z,13.10
2018-06-24T03:47:27.265Z,13.50
2018-06-24T03:49:56.380Z,13.40
2018-06-24T03:52:25.543Z,13.40
2018-06-24T03:54:54.646Z,13.20
2018-06-24T03:57:23.800Z,13.40
2018-06-24T03:59:52.960Z,13.50
2018-06-24T04:02:22.155Z,13.50
2018-06-24T04:04:51.373Z,13.60
2018-06-24T04:07:20.383Z,13.90
2018-06-24T04:09:49.560Z,13.80
2018-06-24T04:12:18.626Z,13.70
2018-06-24T04:14:48.516Z,13.60
2018-06-24T04:17:17.645Z,13.70
2018-06-24T04:19:46.723Z,13.50
2018-06-24T04:22:15.928Z,13.90
2018-06-24T04:24:45.128Z,13.70
2018-06-24T04:27:14.253Z,14.20
2018-06-24T04:29:43.358Z,13.80
2018-06-24T04:32:12.487Z,14.20
2018-06-24T04:34:41.641Z,14.30
2018-06-24T04:37:10.824Z,14.90
2018-06-24T04:39:39.913Z,14.40
2018-06-24T04:42:09.144Z,14.40
2018-06-24T04:44:38.248Z,14.30
2018-06-24T04:47:07.449Z,14.50
2018-06-24T04:49:36.901Z,14.50
2018-06-24T04:52:06.107Z,14.10
2018-06-24T04:54:35.250Z,14.10
2018-06-24T04:57:04.583Z,14.20
2018-06-24T04:59:33.729Z,14.20
2018-06-24T05:02:02.918Z,14.20
2018-06-24T05:04:32.105Z,14.00
2018-06-24T05:07:01.225Z,14.30
2018-06-24T05:09:30.361Z,14.50
2018-06-24T05:11:59.514Z,14.30
2018-06-24T05:14:28.716Z,14.50
2018-06-24T05:16:57.857Z,14.30
2018-06-24T05:19:26.988Z,14.20
2018-06-24T05:21:56.146Z,14.40
2018-06-24T05:24:25.273Z,14.30
2018-06-24T05:26:54.402Z,14.40
2018-06-24T05:29:23.541Z,14.20
2018-06-24T05:31:52.757Z,14.10
2018-06-24T05:34:22.830Z,14.10
2018-06-24T05:36:51.981Z,13.90
2018-06-24T05:39:21.153Z,14.00
2018-06-24T05:41:50.339Z,14.00
2018-06-24T05:44:19.475Z,14.20
2018-06-24T05:46:48.642Z,14.30
2018-06-24T05:49:17.776Z,14.30
2018-06-24T05:51:46.934Z,14.80
2018-06-24T05:54:16.128Z,14.60
2018-06-24T05:56:45.278Z,14.50
2018-06-24T05:59:14.377Z,14.40
2018-06-24T06:01:43.576Z,14.50
2018-06-24T06:04:12.674Z,14.40
2018-06-24T06:06:41.552Z,14.30
2018-06-24T06:09:12.148Z,14.20
2018-06-24T06:11:41.333Z,14.30
2018-06-24T06:14:10.486Z,14.80
2018-06-24T06:16:39.577Z,14.80
2018-06-24T06:19:08.749Z,14.80
2018-06-24T06:21:37.961Z,15.10
2018-06-24T06:24:07.261Z,14.90
2018-06-24T06:26:36.456Z,15.00
2018-06-24T06:29:05.562Z,15.00
2018-06-24T06:31:34.712Z,14.90
2018-06-24T06:34:03.822Z,15.30
2018-06-24T06:36:32.997Z,15.50
2018-06-24T06:39:02.194Z,15.10
2018-06-24T06:41:31.314Z,15.40
2018-06-24T06:44:00.479Z,15.00
2018-06-24T06:46:29.657Z,15.20
2018-06-24T06:48:58.832Z,15.20
2018-06-24T06:51:27.899Z,15.00
2018-06-24T06:53:57.099Z,14.80
2018-06-24T06:56:26.221Z,15.20
2018-06-24T06:58:55.357Z,15.20
2018-06-24T07:01:24.584Z,15.50
2018-06-24T07:03:53.881Z,15.90
2018-06-24T07:06:23.383Z,16.30
2018-06-24T07:08:52.552Z,16.30
2018-06-24T07:11:21.798Z,16.40
2018-06-24T07:13:50.961Z,17.10
2018-06-24T07:16:20.057Z,16.80
2018-06-24T07:18:49.199Z,17.00
2018-06-24T07:21:18.360Z,16.60
2018-06-24T07:23:47.507Z,16.40
2018-06-24T07:26:16.642Z,16.60
2018-06-24T07:28:45.766Z,16.30
2018-06-24T07:31:14.962Z,15.90
2018-06-24T07:33:44.136Z,16.10
2018-06-24T07:36:13.227Z,16.20
2018-06-24T07:38:42.369Z,16.20
2018-06-24T07:41:11.543Z,16.10
2018-06-24T07:43:40.655Z,16.40
2018-06-24T07:46:09.813Z,17.00
2018-06-24T07:48:39.140Z,16.20
2018-06-24T07:51:08.474Z,15.80
2018-06-24T07:53:37.605Z,16.10
2018-06-24T07:56:06.773Z,15.90
2018-06-24T07:58:35.900Z,16.20
2018-06-24T08:01:05.017Z,16.10
2018-06-24T08:03:34.140Z,16.50
2018-06-24T08:06:03.321Z,16.40
2018-06-24T08:08:32.459Z,16.60
2018-06-24T08:11:01.659Z,16.60
2018-06-24T08:13:30.911Z,16.50
2018-06-24T08:16:00.103Z,16.30
2018-06-24T08:18:29.362Z,16.30
2018-06-24T08:20:58.527Z,15.90
2018-06-24T08:23:27.673Z,15.50
2018-06-24T08:25:56.846Z,15.40
2018-06-24T08:28:25.956Z,15.50
2018-06-24T08:30:55.075Z,15.20
2018-06-24T08:33:24.226Z,15.20
2018-06-24T08:35:53.361Z,15.30
2018-06-24T08:38:22.613Z,14.90
2018-06-24T08:40:51.745Z,14.90
2018-06-24T08:43:20.900Z,15.70
2018-06-24T08:45:50.019Z,16.00
2018-06-24T08:48:19.185Z,16.50
2018-06-24T08:50:48.343Z,16.30
2018-06-24T08:53:17.518Z,16.70
2018-06-24T08:55:46.691Z,16.70
2018-06-24T08:58:16.067Z,16.60
2018-06-24T09:00:45.314Z,16.70
2018-06-24T09:03:14.466Z,16.60
2018-06-24T09:05:43.627Z,16.20
2018-06-24T09:08:12.806Z,16.10
2018-06-24T09:10:41.919Z,15.70
2018-06-24T09:13:11.085Z,16.50
2018-06-24T09:15:40.223Z,17.00
2018-06-24T09:18:09.322Z,17.40
2018-06-24T09:20:38.478Z,17.30
2018-06-24T09:23:07.683Z,17.70
2018-06-24T09:25:37.018Z,17.70
2018-06-24T09:28:06.509Z,17.80
2018-06-24T09:30:35.788Z,18.40
2018-06-24T09:33:04.942Z,18.20
2018-06-24T09:35:34.066Z,18.30
2018-06-24T09:38:03.265Z,17.60
2018-06-24T09:40:32.395Z,17.80
2018-06-24T09:43:01.544Z,17.80
2018-06-24T09:45:30.730Z,17.80
2018-06-24T09:47:59.898Z,17.10
2018-06-24T09:50:29.082Z,18.10
2018-06-24T09:52:58.242Z,17.80
2018-06-24T09:55:27.433Z,18.60
2018-06-24T09:57:56.621Z,18.70
2018-06-24T10:00:25.802Z,19.00
2018-06-24T10:02:55.017Z,19.60
2018-06-24T10:05:24.390Z,19.70
2018-06-24T10:07:53.539Z,18.80
2018-06-24T10:10:22.669Z,18.10
2018-06-24T10:12:51.837Z,18.80
2018-06-24T10:15:21.019Z,18.60
2018-06-24T10:17:50.237Z,18.10
2018-06-24T10:20:19.381Z,17.90
2018-06-24T10:22:48.553Z,17.70
2018-06-24T10:25:17.648Z,18.50
2018-06-24T10:27:46.816Z,19.50
2018-06-24T10:30:16.007Z,19.70
2018-06-24T10:32:45.129Z,19.70
2018-06-24T10:35:14.255Z,19.80
2018-06-24T10:37:43.348Z,18.90
2018-06-24T10:40:12.475Z,18.00
2018-06-24T10:42:41.679Z,17.70
2018-06-24T10:45:10.858Z,18.80
2018-06-24T10:47:39.986Z,19.30
2018-06-24T10:50:09.152Z,20.70
2018-06-24T10:52:38.317Z,19.80
2018-06-24T10:55:07.422Z,18.70
2018-06-24T10:57:36.642Z,18.60
2018-06-24T11:00:05.845Z,18.00
2018-06-24T11:02:35.025Z,17.80
2018-06-24T11:05:04.281Z,18.10
2018-06-24T11:07:33.444Z,18.90
2018-06-24T11:10:02.600Z,19.70
2018-06-24T11:12:31.770Z,20.00
2018-06-24T11:15:00.917Z,19.60
2018-06-24T11:17:30.019Z,18.60
2018-06-24T11:19:59.223Z,18.10
2018-06-24T11:22:28.398Z,17.60
2018-06-24T11:24:57.518Z,16.80
2018-06-24T11:27:26.677Z,17.10
2018-06-24T11:29:55.821Z,17.90
2018-06-24T11:32:24.953Z,18.60
2018-06-24T11:34:54.105Z,18.90
2018-06-24T11:37:23.280Z,19.10
2018-06-24T11:39:52.377Z,19.30
2018-06-24T11:42:21.511Z,19.50
2018-06-24T11:44:50.683Z,19.60
2018-06-24T11:47:19.829Z,19.30
2018-06-24T11:49:49.165Z,19.50
2018-06-24T11:52:18.449Z,20.70
2018-06-24T11:54:47.610Z,19.90
2018-06-24T11:57:16.773Z,19.30
2018-06-24T11:59:45.874Z,19.40
2018-06-24T12:02:14.985Z,19.60
2018-06-24T12:04:44.405Z,19.70
2018-06-24T12:07:13.605Z,19.60
2018-06-24T12:09:42.775Z,19.60
2018-06-24T12:12:11.914Z,19.00
2018-06-24T12:14:41.056Z,18.70
2018-06-24T12:17:10.227Z,18.50
2018-06-24T12:19:39.356Z,18.50
2018-06-24T12:22:08.485Z,18.80
2018-06-24T12:24:37.609Z,18.40
2018-06-24T12:27:06.752Z,18.90
2018-06-24T12:29:35.881Z,19.40
2018-06-24T12:32:05.061Z,20.20
2018-06-24T12:34:34.238Z,20.30
2018-06-24T12:37:03.438Z,20.40
2018-06-24T12:39:32.555Z,19.90
2018-06-24T12:42:01.811Z,19.20
2018-06-24T12:44:30.909Z,18.80
2018-06-24T12:47:00.117Z,18.40
2018-06-24T12:49:29.210Z,18.40
2018-06-24T12:51:58.381Z,18.50
2018-06-24T12:54:27.520Z,19.60
2018-06-24T12:56:56.670Z,19.80
2018-06-24T12:59:25.938Z,19.80
2018-06-24T13:01:55.057Z,20.20
2018-06-24T13:04:24.194Z,18.70
2018-06-24T13:06:53.316Z,18.40
2018-06-24T13:09:22.506Z,18.20
2018-06-24T13:11:51.646Z,18.70
2018-06-24T13:14:20.732Z,18.20
2018-06-24T13:16:49.892Z,19.70
2018-06-24T13:19:19.003Z,20.10
2018-06-24T13:21:48.175Z,20.70
2018-06-24T13:24:17.305Z,21.00
2018-06-24T13:26:46.488Z,21.20
2018-06-24T13:29:15.667Z,21.10
2018-06-24T13:31:44.780Z,20.10
2018-06-24T13:34:13.971Z,20.80
2018-06-24T13:36:43.123Z,21.10
2018-06-24T13:39:12.405Z,21.10
2018-06-24T13:41:41.539Z,19.80
2018-06-24T13:44:10.670Z,19.80
2018-06-24T13:46:39.776Z,19.70
2018-06-24T13:49:08.923Z,19.60
2018-06-24T13:51:38.109Z,19.90
2018-06-24T13:54:07.243Z,20.30
2018-06-24T13:56:36.495Z,19.50
2018-06-24T13:59:05.771Z,19.50
2018-06-24T14:01:34.923Z,19.90
2018-06-24T14:04:04.069Z,19.90
2018-06-24T14:06:33.146Z,19.80
2018-06-24T14:09:02.339Z,20.00
2018-06-24T14:11:31.481Z,20.50
2018-06-24T14:14:00.966Z,20.60
2018-06-24T14:16:30.163Z,20.50
2018-06-24T14:18:59.363Z,21.20
2018-06-24T14:21:28.507Z,23.40
2018-06-24T14:23:57.610Z,24.10
2018-06-24T14:26:26.744Z,24.60
2018-06-24T14:28:55.908Z,25.30
2018-06-24T14:31:25.062Z,24.40
2018-06-24T14:33:54.582Z,24.20
2018-06-24T14:36:23.743Z,23.00
2018-06-24T14:38:52.833Z,21.90
2018-06-24T14:41:21.956Z,21.30
2018-06-24T14:43:51.069Z,21.50
2018-06-24T14:46:20.213Z,21.00
2018-06-24T14:48:49.402Z,21.10
2018-06-24T14:51:18.541Z,21.30
2018-06-24T14:53:47.682Z,20.80
2018-06-24T14:56:16.844Z,20.50
2018-06-24T14:58:46.039Z,20.70
2018-06-24T15:01:15.190Z,19.70
2018-06-24T15:03:44.421Z,19.40
2018-06-24T15:06:13.542Z,19.30
2018-06-24T15:08:42.684Z,19.40
2018-06-24T15:11:11.854Z,19.00
2018-06-24T15:13:41.002Z,18.90
2018-06-24T15:16:10.194Z,19.20
2018-06-24T15:18:39.330Z,18.90
2018-06-24T15:21:08.489Z,18.90
2018-06-24T15:23:37.641Z,18.90
2018-06-24T15:26:06.819Z,19.30
2018-06-24T15:28:36.004Z,19.30
2018-06-24T15:31:05.180Z,19.60
2018-06-24T15:33:34.443Z,19.50
2018-06-24T15:36:03.643Z,18.70
2018-06-24T15:38:32.922Z,19.10
2018-06-24T15:41:02.074Z,19.10
2018-06-24T15:43:31.238Z,18.80
2018-06-24T15:46:00.406Z,18.40
2018-06-24T15:48:29.510Z,18.30
2018-06-24T15:50:58.690Z,18.40
2018-06-24T15:53:27.767Z,18.20
2018-06-24T15:55:56.944Z,17.80
2018-06-24T15:58:26.118Z,17.50
2018-06-24T16:00:55.281Z,17.90
2018-06-24T16:03:24.396Z,17.70
2018-06-24T16:05:53.558Z,17.40
2018-06-24T16:08:22.738Z,17.40
2018-06-24T16:10:51.838Z,16.90
2018-06-24T16:13:21.004Z,16.80
2018-06-24T16:15:50.197Z,16.70
2018-06-24T16:18:19.326Z,16.50
2018-06-24T16:20:48.596Z,16.50
2018-06-24T16:23:17.704Z,16.30
2018-06-24T16:25:46.830Z,16.10
2018-06-24T16:28:15.936Z,16.20
2018-06-24T16:30:45.071Z,16.30
2018-06-24T16:33:14.176Z,16.20
2018-06-24T16:35:43.267Z,16.60
2018-06-24T16:38:12.413Z,16.70
2018-06-24T16:40:41.557Z,16.70
2018-06-24T16:43:10.784Z,16.20
2018-06-24T16:45:39.950Z,16.40
2018-06-24T16:48:09.075Z,16.00
2018-06-24T16:50:38.242Z,16.00
2018-06-24T16:53:07.485Z,16.20
2018-06-24T16:55:36.624Z,16.20
2018-06-24T16:58:06.023Z,15.90
2018-06-24T17:00:35.149Z,15.90
2018-06-24T17:03:04.306Z,15.90
2018-06-24T17:05:33.411Z,15.80
2018-06-24T17:08:02.635Z,15.60
2018-06-24T17:10:31.823Z,15.70
2018-06-24T17:13:00.952Z,15.80
2018-06-24T17:15:30.104Z,16.00
2018-06-24T17:17:59.471Z,16.40
2018-06-24T17:20:28.568Z,16.50
2018-06-24T17:22:57.761Z,16.60
2018-06-24T17:25:26.923Z,16.60
2018-06-24T17:27:56.256Z,16.60
2018-06-24T17:30:25.427Z,16.50
2018-06-24T17:32:54.658Z,17.00
2018-06-24T17:35:23.779Z,17.10
2018-06-24T17:37:53.162Z,17.10
2018-06-24T17:40:22.402Z,16.90
2018-06-24T17:42:51.647Z,16.50
2018-06-24T17:45:20.810Z,16.70
2018-06-24T17:47:50.006Z,17.00
2018-06-24T17:50:19.182Z,16.70
2018-06-24T17:52:48.332Z,16.70
2018-06-24T17:55:17.491Z,17.00
2018-06-24T17:57:46.664Z,16.30
2018-06-24T18:00:15.856Z,15.80
2018-06-24T18:02:45.204Z,16.10
2018-06-24T18:05:14.502Z,16.30
2018-06-24T18:07:43.914Z,16.40
2018-06-24T18:10:13.114Z,16.10
2018-06-24T18:12:42.331Z,16.20
2018-06-24T18:15:11.583Z,15.90
2018-06-24T18:17:40.785Z,15.90
2018-06-24T18:20:09.967Z,15.70
2018-06-24T18:22:39.118Z,16.10
2018-06-24T18:25:08.223Z,16.10
2018-06-24T18:27:37.395Z,16.00
2018-06-24T18:30:06.942Z,16.40
2018-06-24T18:32:36.144Z,16.20
2018-06-24T18:35:05.320Z,16.50
2018-06-24T18:37:34.557Z,16.40
2018-06-24T18:40:03.816Z,16.10
2018-06-24T18:42:32.983Z,15.80
2018-06-24T18:45:02.158Z,15.60
2018-06-24T18:47:31.323Z,15.50
2018-06-24T18:50:00.499Z,15.70
2018-06-24T18:52:29.679Z,15.30
2018-06-24T18:54:58.884Z,15.30
2018-06-24T18:57:28.126Z,15.80
2018-06-24T18:59:57.332Z,15.70
2018-06-24T19:02:26.578Z,15.40
2018-06-24T19:04:55.791Z,15.50
2018-06-24T19:07:25.015Z,15.50
2018-06-24T19:09:54.248Z,15.60
2018-06-24T19:12:23.320Z,16.00
2018-06-24T19:14:52.549Z,15.90
2018-06-24T19:17:21.725Z,15.60
2018-06-24T19:19:50.931Z,15.60
2018-06-24T19:22:20.192Z,16.00
2018-06-24T19:24:49.402Z,15.60
2018-06-24T19:27:18.628Z,15.40
2018-06-24T19:29:47.874Z,15.50
2018-06-24T19:32:17.112Z,15.40
2018-06-24T19:34:46.381Z,15.60
2018-06-24T19:37:15.586Z,15.50
2018-06-24T19:39:44.857Z,15.50
2018-06-24T19:42:14.089Z,15.50
2018-06-24T19:44:43.265Z,16.10
2018-06-24T19:47:12.491Z,15.40
2018-06-24T19:49:41.679Z,15.50
2018-06-24T19:52:10.939Z,15.60
2018-06-24T19:54:40.163Z,15.70
2018-06-24T19:57:09.290Z,16.10
2018-06-24T19:59:38.524Z,16.20
2018-06-24T20:02:07.772Z,15.70
2018-06-24T20:04:36.924Z,16.10
2018-06-24T20:07:06.148Z,16.10
2018-06-24T20:09:35.311Z,15.80
2018-06-24T20:12:04.520Z,16.20
2018-06-24T20:14:33.747Z,15.80
2018-06-24T20:17:02.961Z,16.30
2018-06-24T20:19:32.148Z,15.90
2018-06-24T20:22:01.612Z,16.30
2018-06-24T20:24:30.587Z,15.90
2018-06-24T20:26:59.791Z,15.80
2018-06-24T20:29:29.012Z,16.40
2018-06-24T20:31:58.186Z,15.90
2018-06-24T20:34:27.375Z,15.80
2018-06-24T20:36:56.583Z,15.50
2018-06-24T20:39:25.757Z,15.70
2018-06-24T20:41:55.587Z,16.30
2018-06-24T20:44:24.998Z,16.50
2018-06-24T20:46:54.191Z,16.20
2018-06-24T20:49:23.362Z,16.10
2018-06-24T20:51:52.465Z,16.30
2018-06-24T20:54:21.623Z,16.30
2018-06-24T20:56:50.790Z,16.50
2018-06-24T20:59:19.890Z,16.30
2018-06-24T21:01:49.017Z,16.40
2018-06-24T21:04:18.167Z,15.80
2018-06-24T21:06:47.543Z,15.60
2018-06-24T21:09:16.684Z,15.80
2018-06-24T21:11:45.873Z,15.70
2018-06-24T21:14:15.061Z,15.60
2018-06-24T21:16:44.217Z,15.10
2018-06-24T21:19:13.296Z,15.30
2018-06-24T21:21:42.478Z,15.30
2018-06-24T21:24:11.671Z,15.80
2018-06-24T21:26:40.837Z,16.10
2018-06-24T21:29:09.973Z,16.30
2018-06-24T21:31:39.101Z,16.00
2018-06-24T21:34:08.274Z,15.70
2018-06-24T21:36:37.393Z,15.90
2018-06-24T21:39:09.252Z,15.70
2018-06-24T21:41:38.369Z,15.70
2018-06-24T21:44:07.511Z,15.50
2018-06-24T21:46:36.628Z,16.10
2018-06-24T21:49:05.815Z,16.00
2018-06-24T21:51:34.961Z,15.50
2018-06-24T21:54:04.102Z,15.30
2018-06-24T21:56:33.277Z,15.80
2018-06-24T21:59:02.423Z,15.40
2018-06-24T22:01:31.634Z,15.70
2018-06-24T22:04:00.842Z,15.70
2018-06-24T22:06:29.953Z,15.50
2018-06-24T22:08:59.167Z,15.70
2018-06-24T22:11:28.278Z,16.20
2018-06-24T22:13:57.410Z,16.20
2018-06-24T22:16:26.505Z,16.40
2018-06-24T22:18:55.653Z,16.40
2018-06-24T22:21:24.794Z,15.50
2018-06-24T22:23:53.917Z,15.90
2018-06-24T22:26:23.090Z,15.70
2018-06-24T22:28:52.196Z,15.70
2018-06-24T22:31:21.420Z,16.10
2018-06-24T22:33:50.571Z,15.60
2018-06-24T22:36:19.697Z,15.60
2018-06-24T22:38:48.933Z,15.50
2018-06-24T22:41:18.095Z,15.50
2018-06-24T22:43:47.259Z,15.70
2018-06-24T22:46:16.419Z,16.00
2018-06-24T22:48:45.556Z,16.30
2018-06-24T22:51:14.763Z,16.10
2018-06-24T22:53:43.988Z,16.30
2018-06-24T22:56:13.165Z,16.00
2018-06-24T22:58:43.101Z,15.70
2018-06-24T23:01:12.266Z,16.00
2018-06-24T23:03:41.445Z,16.30
2018-06-24T23:06:10.582Z,16.20
2018-06-24T23:08:39.771Z,16.40
2018-06-24T23:11:08.933Z,16.40
2018-06-24T23:13:38.055Z,16.20
2018-06-24T23:16:07.237Z,16.60
2018-06-24T23:18:36.410Z,16.80
2018-06-24T23:21:05.717Z,16.20
2018-06-24T23:23:34.858Z,16.70
2018-06-24T23:26:04.005Z,16.40
2018-06-24T23:28:33.132Z,16.20
2018-06-24T23:31:02.292Z,16.30
2018-06-24T23:33:31.410Z,16.80
2018-06-24T23:36:00.554Z,17.10
2018-06-24T23:38:29.689Z,16.90
2018-06-24T23:40:58.812Z,16.70
2018-06-24T23:43:27.970Z,16.70
2018-06-24T23:45:57.067Z,16.70
2018-06-24T23:48:26.233Z,16.70
2018-06-24T23:50:55.442Z,16.90
2018-06-24T23:53:24.619Z,17.00
2018-06-24T23:55:53.724Z,17.10
2018-06-24T23:58:22.862Z,16.80
